createdAt,value
2018-12-14T00:03:20.449Z,33.67
2018-12-14T00:08:25.254Z,38.23
2018-12-14T00:13:28.226Z,31.27
2018-12-14T00:18:31.302Z,30.90
2018-12-14T00:23:34.147Z,33.60
2018-12-14T00:28:36.947Z,31.97
2018-12-14T00:33:39.795Z,34.47
2018-12-14T00:38:42.747Z,31.37
2018-12-14T00:43:45.440Z,29.80
2018-12-14T00:54:27.256Z,25.10
2018-12-14T00:59:30.062Z,24.07
2018-12-14T01:04:32.953Z,24.10
2018-12-14T01:09:35.907Z,23.33
2018-12-14T01:14:40.845Z,24.43
2018-12-14T01:19:43.935Z,26.07
2018-12-14T01:24:47.630Z,25.90
2018-12-14T01:29:50.413Z,23.80
2018-12-14T01:34:53.230Z,22.70
2018-12-14T01:39:55.974Z,25.00
2018-12-14T01:44:58.782Z,23.90
2018-12-14T01:50:01.808Z,25.93
2018-12-14T01:55:05.445Z,25.27
2018-12-14T02:00:08.486Z,25.43
2018-12-14T02:05:11.369Z,24.83
2018-12-14T02:10:14.257Z,25.53
2018-12-14T02:15:17.145Z,25.93
2018-12-14T02:20:19.895Z,28.00
2018-12-14T02:25:22.797Z,27.53
2018-12-14T02:30:46.582Z,27.60
2018-12-14T02:41:02.183Z,30.63
2018-12-14T02:46:05.074Z,27.20
2018-12-14T02:51:07.845Z,30.37
2018-12-14T02:56:10.822Z,24.03
2018-12-14T03:01:13.688Z,21.00
2018-12-14T03:06:16.733Z,24.40
2018-12-14T03:11:19.478Z,22.70
2018-12-14T03:16:22.271Z,26.63
2018-12-14T03:21:25.020Z,27.33
2018-12-14T03:26:27.831Z,27.20
2018-12-14T03:31:30.672Z,29.07
2018-12-14T03:36:33.481Z,31.13
2018-12-14T03:41:36.594Z,31.43
2018-12-14T03:46:39.486Z,31.10
2018-12-14T03:51:42.581Z,30.77
2018-12-14T03:56:45.649Z,39.50
2018-12-14T04:01:48.510Z,32.37
2018-12-14T04:06:51.357Z,33.40
2018-12-14T04:11:54.193Z,31.53
2018-12-14T04:16:57.349Z,30.03
2018-12-14T04:22:00.168Z,32.40
2018-12-14T04:27:03.038Z,32.50
2018-12-14T04:32:06.829Z,35.67
2018-12-14T04:37:09.594Z,36.80
2018-12-14T04:42:12.229Z,32.67
2018-12-14T04:47:15.469Z,32.60
2018-12-14T04:52:18.241Z,36.63
2018-12-14T04:57:20.980Z,35.73
2018-12-14T05:02:23.657Z,30.90
2018-12-14T05:07:26.754Z,33.37
2018-12-14T05:12:29.683Z,30.60
2018-12-14T05:17:32.739Z,29.67
2018-12-14T05:22:35.561Z,32.67
2018-12-14T05:27:38.439Z,32.50
2018-12-14T05:32:41.233Z,35.03
2018-12-14T05:37:44.154Z,34.43
2018-12-14T05:42:47.866Z,36.10
2018-12-14T05:47:50.564Z,40.27
2018-12-14T05:52:53.294Z,39.83
2018-12-14T05:57:55.951Z,38.70
2018-12-14T06:02:58.719Z,37.07
2018-12-14T06:08:01.402Z,37.53
2018-12-14T06:13:09.090Z,35.57
2018-12-14T06:18:09.182Z,50.80
2018-12-14T06:23:11.967Z,36.00
2018-12-14T06:28:14.641Z,39.93
2018-12-14T06:33:17.432Z,36.10
2018-12-14T06:38:20.293Z,36.93
2018-12-14T06:43:23.572Z,42.20
2018-12-14T06:48:26.448Z,34.23
2018-12-14T06:53:29.751Z,39.73
2018-12-14T06:58:32.703Z,40.10
2018-12-14T07:03:35.709Z,36.37
2018-12-14T07:08:38.528Z,46.70
2018-12-14T07:13:41.337Z,37.50
2018-12-14T07:18:45.694Z,41.60
2018-12-14T07:23:48.449Z,38.67
2018-12-14T07:28:52.229Z,35.83
2018-12-14T07:33:54.949Z,39.23
2018-12-14T07:38:57.997Z,49.37
2018-12-14T07:44:00.849Z,40.67
2018-12-14T07:49:03.894Z,43.00
2018-12-14T07:54:06.877Z,43.77
2018-12-14T07:59:10.508Z,41.60
2018-12-14T08:04:13.618Z,43.87
2018-12-14T08:09:16.617Z,43.60
2018-12-14T08:14:19.625Z,46.80
2018-12-14T08:19:22.291Z,40.00
2018-12-14T08:24:25.161Z,45.53
2018-12-14T08:29:28.272Z,41.60
2018-12-14T08:34:31.138Z,40.33
2018-12-14T08:39:34.612Z,43.27
2018-12-14T08:44:37.632Z,40.60
2018-12-14T08:49:40.850Z,38.97
2018-12-14T08:54:43.689Z,35.27
2018-12-14T08:59:46.421Z,36.17
2018-12-14T09:04:49.452Z,38.63
2018-12-14T09:09:52.269Z,33.07
2018-12-14T09:14:54.993Z,35.00
2018-12-14T09:19:58.225Z,34.17
2018-12-14T09:25:02.048Z,40.33
2018-12-14T09:30:06.261Z,33.70
2018-12-14T09:35:09.449Z,32.67
2018-12-14T09:40:12.633Z,31.77
2018-12-14T09:45:15.836Z,34.23
2018-12-14T09:50:18.988Z,31.43
2018-12-14T09:55:21.848Z,32.67
2018-12-14T10:00:24.790Z,32.77
2018-12-14T10:05:27.707Z,29.47
2018-12-14T10:10:30.725Z,25.93
2018-12-14T10:15:33.712Z,27.13
2018-12-14T10:20:36.764Z,24.97
2018-12-14T10:25:39.962Z,26.80
2018-12-14T10:30:42.813Z,28.77
2018-12-14T10:35:45.792Z,22.10
2018-12-14T10:40:49.057Z,24.93
2018-12-14T10:45:52.801Z,23.30
2018-12-14T10:50:55.883Z,23.93
2018-12-14T10:55:58.955Z,26.13
2018-12-14T11:01:07.758Z,22.23
2018-12-14T11:06:10.743Z,20.53
2018-12-14T11:11:13.675Z,21.73
2018-12-14T11:16:17.273Z,27.63
2018-12-14T11:21:20.206Z,18.73
2018-12-14T11:26:23.092Z,21.77
2018-12-14T11:31:25.916Z,19.63
2018-12-14T11:36:29.438Z,17.60
2018-12-14T11:41:32.566Z,18.70
2018-12-14T11:46:35.184Z,19.23
2018-12-14T11:51:38.761Z,19.83
2018-12-14T11:56:41.573Z,19.83
2018-12-14T12:01:44.395Z,21.03
2018-12-14T12:06:47.345Z,19.30
2018-12-14T12:11:50.050Z,17.53
2018-12-14T12:16:52.922Z,21.00
2018-12-14T12:21:55.922Z,20.07
2018-12-14T12:26:58.764Z,17.77
2018-12-14T12:32:01.776Z,16.93
2018-12-14T12:37:04.790Z,20.63
2018-12-14T12:42:07.620Z,16.33
2018-12-14T12:47:11.613Z,16.80
2018-12-14T12:52:14.607Z,18.30
2018-12-14T12:57:17.821Z,17.33
2018-12-14T13:02:20.653Z,18.40
2018-12-14T13:07:23.848Z,16.37
2018-12-14T13:12:27.212Z,17.23
2018-12-14T13:17:29.969Z,16.10
2018-12-14T13:22:32.701Z,14.20
2018-12-14T13:27:35.724Z,17.17
2018-12-14T13:32:38.783Z,17.37
2018-12-14T13:37:41.886Z,17.70
2018-12-14T13:42:44.885Z,20.57
2018-12-14T13:47:48.020Z,24.03
2018-12-14T13:52:50.809Z,30.17
2018-12-14T13:57:53.839Z,22.60
2018-12-14T14:02:56.639Z,20.77
2018-12-14T14:07:59.633Z,21.40
2018-12-14T14:13:02.594Z,23.57
2018-12-14T14:18:05.562Z,22.93
2018-12-14T14:23:08.745Z,23.30
2018-12-14T14:28:11.448Z,24.93
2018-12-14T14:33:14.574Z,21.33
2018-12-14T14:38:18.214Z,24.77
2018-12-14T14:43:21.351Z,29.03
2018-12-14T14:48:24.181Z,26.83
2018-12-14T14:53:27.000Z,28.23
2018-12-14T14:58:29.896Z,27.80
2018-12-14T15:03:32.847Z,26.87
2018-12-14T15:08:35.879Z,30.93
2018-12-14T15:13:38.865Z,32.37
2018-12-14T15:18:41.812Z,34.50
2018-12-14T15:23:44.842Z,38.77
2018-12-14T15:28:47.529Z,36.37
2018-12-14T15:33:50.254Z,40.17
2018-12-14T15:38:53.132Z,36.87
2018-12-14T15:43:56.142Z,38.10
2018-12-14T15:48:59.055Z,37.43
2018-12-14T15:54:01.807Z,39.90
2018-12-14T15:59:05.042Z,44.10
2018-12-14T16:04:08.049Z,37.00
2018-12-14T16:09:11.116Z,41.63
2018-12-14T16:14:14.672Z,43.23
2018-12-14T16:19:17.721Z,40.83
2018-12-14T16:24:21.050Z,45.43
2018-12-14T16:29:24.097Z,44.57
2018-12-14T16:34:27.119Z,46.83
2018-12-14T16:39:30.405Z,41.10
2018-12-14T16:44:33.267Z,42.00
2018-12-14T16:49:36.008Z,42.70
2018-12-14T16:54:39.303Z,42.10
2018-12-14T16:59:42.388Z,41.60
2018-12-14T17:04:45.720Z,45.17
2018-12-14T17:09:48.923Z,46.90
2018-12-14T17:14:51.778Z,46.13
2018-12-14T17:19:55.005Z,45.40
2018-12-14T17:24:58.065Z,46.67
2018-12-14T17:30:00.833Z,49.03
2018-12-14T17:35:04.480Z,48.53
2018-12-14T17:40:07.371Z,46.57
2018-12-14T17:45:12.198Z,49.17
2018-12-14T17:50:15.003Z,45.70
2018-12-14T17:55:17.914Z,46.20
2018-12-14T18:00:20.664Z,46.77
2018-12-14T18:05:23.747Z,46.07
2018-12-14T18:10:26.496Z,45.67
2018-12-14T18:15:29.416Z,46.87
2018-12-14T18:20:32.052Z,50.23
2018-12-14T18:25:34.976Z,50.43
2018-12-14T18:30:37.773Z,51.00
2018-12-14T18:35:40.582Z,51.47
2018-12-14T18:40:43.479Z,51.53
2018-12-14T18:45:52.951Z,46.53
2018-12-14T18:50:51.254Z,51.13
2018-12-14T18:55:54.092Z,52.27
2018-12-14T19:00:57.036Z,52.80
2018-12-14T19:06:00.088Z,73.63
2018-12-14T19:11:02.984Z,51.60
2018-12-14T19:16:06.070Z,47.63
2018-12-14T19:21:08.796Z,56.47
2018-12-14T19:26:11.810Z,54.77
2018-12-14T19:31:14.537Z,56.07
2018-12-14T19:36:17.603Z,49.57
2018-12-14T19:41:20.603Z,51.83
2018-12-14T19:46:26.493Z,51.93
2018-12-14T19:51:29.565Z,50.27
2018-12-14T19:56:32.479Z,53.70
2018-12-14T20:01:35.638Z,50.50
2018-12-14T20:06:38.518Z,50.23
2018-12-14T20:11:41.399Z,52.13
2018-12-14T20:16:44.168Z,54.97
2018-12-14T20:21:47.092Z,54.43
2018-12-14T20:26:52.814Z,51.27
2018-12-14T20:31:55.892Z,54.67
2018-12-14T20:36:58.774Z,47.27
2018-12-14T20:42:01.698Z,54.10
2018-12-14T20:47:04.573Z,46.13
2018-12-14T20:52:07.586Z,46.93
2018-12-14T20:57:13.107Z,43.63
2018-12-14T21:02:15.898Z,44.03
2018-12-14T21:07:18.956Z,49.03
2018-12-14T21:12:21.815Z,43.50
2018-12-14T21:17:24.567Z,43.03
2018-12-14T21:22:27.260Z,38.90
2018-12-14T21:27:30.418Z,41.20
2018-12-14T21:32:33.325Z,40.53
2018-12-14T21:37:36.121Z,42.93
2018-12-14T21:42:39.002Z,39.43
2018-12-14T21:47:41.765Z,42.60
2018-12-14T21:52:44.537Z,44.90
2018-12-14T21:57:47.552Z,43.37
2018-12-14T22:02:50.421Z,43.43
2018-12-14T22:07:52.961Z,39.60
2018-12-14T22:12:55.845Z,44.43
2018-12-14T22:17:58.688Z,40.63
2018-12-14T22:23:01.526Z,40.50
2018-12-14T22:28:04.434Z,35.83
2018-12-14T22:33:07.484Z,36.73
2018-12-14T22:38:10.269Z,40.37
2018-12-14T22:43:13.155Z,35.27
2018-12-14T22:48:15.999Z,33.87
2018-12-14T22:53:18.887Z,36.13
2018-12-14T22:58:21.683Z,36.03
2018-12-14T23:03:24.616Z,35.40
2018-12-14T23:08:28.598Z,38.03
2018-12-14T23:13:31.549Z,35.13
2018-12-14T23:18:34.224Z,31.77
2018-12-14T23:23:37.101Z,34.80
2018-12-14T23:28:40.062Z,35.23
2018-12-14T23:33:42.849Z,31.53
2018-12-14T23:38:45.610Z,29.87
2018-12-14T23:43:48.442Z,33.63
2018-12-14T23:48:51.212Z,29.93
2018-12-14T23:53:54.274Z,32.67
2018-12-14T23:58:56.975Z,29.33
